Time;durP1;ratioP1;P1;durP2;ratioP2;P2;SDS_P1;SDS_P2;PMS_P1;PMS_P2;Temp;Humidity;BMP_temperature;BMP_pressure;BME280_temperature;BME280_humidity;BME280_pressure;Samples;Min_cycle;Max_cycle;Signal;HPM_P1;HPM_P2
2023/05/17 00:00:44;;;;;;;17.50;4.65;;;8.80;90.20;;;;;;5044962;28;20187;-77
2023/05/17 00:03:10;;;;;;;24.48;4.72;;;8.90;90.90;;;;;;5054155;28;20369;-76
2023/05/17 00:05:35;;;;;;;17.75;4.80;;;8.80;91.70;;;;;;5045645;28;20030;-77
2023/05/17 00:08:01;;;;;;;16.42;5.28;;;8.80;92.10;;;;;;5052541;28;20025;-77
2023/05/17 00:10:26;;;;;;;13.95;4.50;;;8.80;92.60;;;;;;5047277;28;20039;-78
2023/05/17 00:12:52;;;;;;;18.08;5.20;;;8.80;92.70;;;;;;5045000;28;20472;-77
2023/05/17 00:15:17;;;;;;;15.10;5.03;;;8.90;93.20;;;;;;5046934;28;20067;-76
2023/05/17 00:17:43;;;;;;;21.90;5.28;;;8.70;93.00;;;;;;5047242;28;20111;-77
2023/05/17 00:20:08;;;;;;;14.18;4.82;;;8.80;93.40;;;;;;5042593;28;20361;-76
2023/05/17 00:22:34;;;;;;;16.10;5.22;;;8.70;93.50;;;;;;5037534;28;20083;-77
2023/05/17 00:24:59;;;;;;;22.80;5.97;;;8.70;93.80;;;;;;5049876;28;20478;-77
2023/05/17 00:27:25;;;;;;;20.92;5.43;;;8.60;94.10;;;;;;5040464;28;20104;-77
2023/05/17 00:29:50;;;;;;;17.58;4.88;;;8.50;94.10;;;;;;5039017;28;20028;-77
2023/05/17 00:32:16;;;;;;;21.23;5.50;;;8.30;94.30;;;;;;5044843;28;20024;-77
2023/05/17 00:34:41;;;;;;;18.48;5.22;;;8.30;94.20;;;;;;5042823;28;20041;-77
2023/05/17 00:37:07;;;;;;;21.55;5.60;;;8.20;94.20;;;;;;5044299;28;20029;-77
2023/05/17 00:39:32;;;;;;;25.33;5.75;;;8.10;94.30;;;;;;5048264;28;20059;-77
2023/05/17 00:41:59;;;;;;;17.33;4.78;;;8.10;94.30;;;;;;5045388;28;20036;-77
2023/05/17 00:44:25;;;;;;;21.65;5.25;;;8.00;93.80;;;;;;5048577;28;20043;-77
2023/05/17 00:46:50;;;;;;;21.27;5.00;;;7.90;93.90;;;;;;5045241;28;20064;-78
2023/05/17 00:49:16;;;;;;;21.70;4.85;;;7.80;94.00;;;;;;5051439;28;20020;-76
2023/05/17 00:51:42;;;;;;;19.23;4.63;;;7.80;93.80;;;;;;5041735;28;20329;-77
2023/05/17 00:54:08;;;;;;;19.52;4.18;;;7.70;93.60;;;;;;5045191;28;20032;-77
2023/05/17 00:56:33;;;;;;;22.20;4.93;;;7.70;93.10;;;;;;5040097;28;20029;-77
2023/05/17 00:58:59;;;;;;;20.67;4.45;;;7.70;93.40;;;;;;5044321;28;20607;-77
2023/05/17 01:01:26;;;;;;;18.13;5.07;;;7.60;93.10;;;;;;5044961;28;20483;-77
2023/05/17 01:03:52;;;;;;;16.55;5.10;;;7.60;93.40;;;;;;5047400;28;20030;-75
2023/05/17 01:06:18;;;;;;;22.42;4.68;;;7.40;93.40;;;;;;5046145;28;20593;-76
2023/05/17 01:08:44;;;;;;;29.42;4.57;;;7.40;93.80;;;;;;5045518;28;20037;-76
2023/05/17 01:11:18;;;;;;;26.83;4.97;;;7.40;93.90;;;;;;5045802;28;20434;-77
2023/05/17 01:14:17;;;;;;;17.92;4.82;;;7.30;94.00;;;;;;5041401;28;20060;-77
2023/05/17 01:16:56;;;;;;;21.90;5.20;;;7.20;94.40;;;;;;5046673;28;20425;-77
2023/05/17 01:19:38;;;;;;;25.52;5.55;;;7.20;94.80;;;;;;5050581;28;20132;-77
2023/05/17 01:22:22;;;;;;;24.92;5.72;;;7.20;94.90;;;;;;5048981;28;20047;-77
2023/05/17 01:25:03;;;;;;;16.83;5.20;;;7.10;95.00;;;;;;5051562;28;20079;-78
2023/05/17 01:27:30;;;;;;;22.60;5.00;;;7.10;95.10;;;;;;5045688;28;20025;-77
2023/05/17 01:29:56;;;;;;;24.75;5.57;;;7.10;95.00;;;;;;5041083;28;20469;-76
2023/05/17 01:32:24;;;;;;;25.02;5.50;;;7.10;94.90;;;;;;5051346;28;20032;-77
2023/05/17 01:34:49;;;;;;;20.52;4.70;;;7.10;94.60;;;;;;5041889;28;20098;-76
2023/05/17 01:37:15;;;;;;;28.65;4.72;;;7.10;94.60;;;;;;5050023;28;20403;-77
2023/05/17 01:39:41;;;;;;;26.13;5.13;;;7.10;94.50;;;;;;5047213;28;20029;-76
2023/05/17 01:42:15;;;;;;;25.98;5.03;;;7.10;94.50;;;;;;5050204;28;20362;-77
2023/05/17 01:45:19;;;;;;;27.90;5.85;;;7.20;94.40;;;;;;5045695;28;20025;-76
2023/05/17 01:47:49;;;;;;;20.80;5.13;;;7.30;94.40;;;;;;5048913;28;20090;-76
2023/05/17 01:50:21;;;;;;;25.03;5.07;;;7.30;94.20;;;;;;5049985;28;20023;-77
2023/05/17 01:52:53;;;;;;;29.10;5.10;;;7.30;94.20;;;;;;5051375;28;20025;-77
2023/05/17 01:55:30;;;;;;;20.23;4.85;;;7.30;93.80;;;;;;5047902;28;20100;-77
2023/05/17 01:57:56;;;;;;;20.20;4.78;;;7.40;93.60;;;;;;5048391;28;20487;-76
2023/05/17 02:00:24;;;;;;;25.95;4.38;;;7.40;93.30;;;;;;5045519;28;20032;-77
2023/05/17 02:02:50;;;;;;;17.98;4.25;;;7.40;93.30;;;;;;5051648;28;20048;-77
2023/05/17 02:05:15;;;;;;;17.92;3.83;;;7.30;93.00;;;;;;5045827;28;20056;-76
2023/05/17 02:07:41;;;;;;;18.17;4.20;;;7.30;93.00;;;;;;5051043;28;20041;-77
2023/05/17 02:10:07;;;;;;;18.52;4.25;;;7.20;93.10;;;;;;5047780;28;20047;-77
2023/05/17 02:12:33;;;;;;;17.33;4.88;;;7.20;93.60;;;;;;5046905;28;20060;-77
2023/05/17 02:14:58;;;;;;;22.67;3.95;;;7.20;93.60;;;;;;5062346;28;20063;-76
2023/05/17 02:17:23;;;;;;;19.80;4.47;;;7.10;93.70;;;;;;5046896;28;20045;-77
2023/05/17 02:19:49;;;;;;;15.13;3.60;;;7.10;93.80;;;;;;5046976;28;20037;-76
2023/05/17 02:22:15;;;;;;;20.52;3.88;;;7.00;93.80;;;;;;5045819;28;20036;-77
2023/05/17 02:24:40;;;;;;;19.85;4.03;;;6.90;94.20;;;;;;5046069;28;20504;-76
2023/05/17 02:27:06;;;;;;;18.92;3.63;;;6.80;94.40;;;;;;5044507;28;20027;-77
2023/05/17 02:29:31;;;;;;;25.15;4.20;;;6.80;94.50;;;;;;5049183;28;20036;-77
2023/05/17 02:31:57;;;;;;;19.58;4.00;;;6.90;94.70;;;;;;5049023;28;20116;-77
2023/05/17 02:34:22;;;;;;;21.67;4.43;;;6.80;94.60;;;;;;5044258;28;20041;-77
2023/05/17 02:36:48;;;;;;;26.23;4.80;;;6.80;94.70;;;;;;5049215;28;20503;-76
2023/05/17 02:39:13;;;;;;;23.25;4.57;;;6.80;94.70;;;;;;5046335;28;20029;-76
2023/05/17 02:41:38;;;;;;;28.98;4.45;;;6.90;94.80;;;;;;5046128;28;20025;-76
2023/05/17 02:44:04;;;;;;;20.50;4.25;;;6.80;94.80;;;;;;5048795;28;20397;-76
2023/05/17 02:46:30;;;;;;;24.90;4.68;;;6.80;94.90;;;;;;5044182;28;20056;-76
2023/05/17 02:48:55;;;;;;;19.00;4.22;;;6.70;94.90;;;;;;5048976;28;20032;-77
2023/05/17 02:51:20;;;;;;;28.75;4.60;;;6.60;94.90;;;;;;5046817;28;20041;-77
2023/05/17 02:53:46;;;;;;;16.77;4.32;;;6.60;95.10;;;;;;5047407;28;20037;-76
2023/05/17 02:56:12;;;;;;;21.67;3.55;;;6.50;95.20;;;;;;5046101;28;20446;-76
2023/05/17 02:58:37;;;;;;;21.92;4.25;;;6.50;95.20;;;;;;5049741;28;20025;-76
2023/05/17 03:01:03;;;;;;;21.58;4.47;;;6.50;95.40;;;;;;5047790;28;20032;-76
2023/05/17 03:03:28;;;;;;;22.02;3.97;;;6.50;95.40;;;;;;5046021;28;20029;-76
2023/05/17 03:05:54;;;;;;;20.83;3.80;;;6.50;95.40;;;;;;5053834;28;20036;-76
2023/05/17 03:08:19;;;;;;;27.67;4.45;;;6.40;95.30;;;;;;5049510;28;20462;-76
2023/05/17 03:10:45;;;;;;;25.85;4.20;;;6.40;95.40;;;;;;5045970;28;20033;-77
2023/05/17 03:13:10;;;;;;;22.50;4.25;;;6.40;95.10;;;;;;5047859;28;20063;-76
2023/05/17 03:15:36;;;;;;;25.58;4.88;;;6.30;95.10;;;;;;5054880;28;20025;-77
2023/05/17 03:18:01;;;;;;;18.38;3.67;;;6.20;95.00;;;;;;5052582;28;20071;-76
2023/05/17 03:20:27;;;;;;;26.15;4.88;;;6.20;95.10;;;;;;5045798;28;20431;-77
2023/05/17 03:22:52;;;;;;;23.70;4.82;;;6.20;95.20;;;;;;5056502;28;20040;-77
2023/05/17 03:25:17;;;;;;;25.15;4.30;;;6.30;95.30;;;;;;5047053;28;20523;-76
2023/05/17 03:27:43;;;;;;;31.73;4.55;;;6.20;95.10;;;;;;5051548;28;20120;-76
2023/05/17 03:30:09;;;;;;;23.42;4.65;;;6.20;94.90;;;;;;5043679;28;20552;-76
2023/05/17 03:32:36;;;;;;;24.75;4.22;;;6.30;94.80;;;;;;5045697;28;20033;-77
2023/05/17 03:35:02;;;;;;;21.42;4.07;;;6.30;94.50;;;;;;5040943;28;20502;-76
2023/05/17 03:37:28;;;;;;;16.73;3.67;;;6.30;94.60;;;;;;5040921;28;20045;-77
2023/05/17 03:39:53;;;;;;;21.63;3.72;;;6.30;94.50;;;;;;5049325;28;20091;-76
2023/05/17 03:42:19;;;;;;;25.83;3.85;;;6.30;94.10;;;;;;5036561;28;20036;-76
2023/05/17 03:44:45;;;;;;;24.63;4.00;;;6.30;94.10;;;;;;5047670;28;20454;-77
2023/05/17 03:47:10;;;;;;;20.25;3.35;;;6.30;94.20;;;;;;5043169;28;20032;-76
2023/05/17 03:49:36;;;;;;;22.15;3.60;;;6.30;93.80;;;;;;5043223;28;20024;-76
2023/05/17 03:52:02;;;;;;;20.52;3.50;;;6.30;93.40;;;;;;5048560;28;20033;-77
2023/05/17 03:54:27;;;;;;;16.95;2.83;;;6.30;93.40;;;;;;5047330;28;20078;-76
2023/05/17 03:56:53;;;;;;;25.35;3.80;;;6.30;93.50;;;;;;5040021;28;20029;-76
2023/05/17 03:59:18;;;;;;;18.05;3.15;;;6.30;93.50;;;;;;5043862;28;20025;-77
2023/05/17 04:01:44;;;;;;;22.10;3.63;;;6.30;93.30;;;;;;5050570;28;20457;-77
2023/05/17 04:04:10;;;;;;;18.08;2.90;;;6.30;93.30;;;;;;5046373;28;20025;-76
2023/05/17 04:06:35;;;;;;;13.90;3.10;;;6.20;93.40;;;;;;5038993;28;20041;-77
2023/05/17 04:09:04;;;;;;;18.00;3.28;;;6.20;93.60;;;;;;5039298;28;20507;-76
2023/05/17 04:11:31;;;;;;;21.58;3.10;;;6.20;93.60;;;;;;5044103;28;20041;-76
2023/05/17 04:13:57;;;;;;;16.90;3.35;;;6.20;93.40;;;;;;5048822;28;20049;-75
2023/05/17 04:16:22;;;;;;;18.60;3.10;;;6.20;93.40;;;;;;5043613;28;20036;-75
2023/05/17 04:18:51;;;;;;;17.55;3.13;;;6.20;93.30;;;;;;5046011;28;20048;-76
2023/05/17 04:21:17;;;;;;;16.00;3.40;;;6.20;93.10;;;;;;5047624;28;20360;-76
2023/05/17 04:23:42;;;;;;;20.85;3.53;;;6.30;93.10;;;;;;5039520;28;20402;-76
2023/05/17 04:26:08;;;;;;;19.45;3.03;;;6.30;92.60;;;;;;5041561;28;20060;-75
2023/05/17 04:28:34;;;;;;;14.05;3.22;;;6.30;92.30;;;;;;5040472;28;20120;-75
2023/05/17 04:31:00;;;;;;;19.17;2.72;;;6.40;92.10;;;;;;5047197;28;20069;-74
2023/05/17 04:33:26;;;;;;;17.35;3.10;;;6.40;91.40;;;;;;5049869;28;20357;-74
2023/05/17 04:35:54;;;;;;;14.27;2.58;;;6.40;91.10;;;;;;5046023;28;20022;-74
2023/05/17 04:38:19;;;;;;;15.27;2.50;;;6.50;91.10;;;;;;5047070;28;20032;-74
2023/05/17 04:40:45;;;;;;;19.95;2.65;;;6.50;91.20;;;;;;5053094;28;20021;-74
2023/05/17 04:43:10;;;;;;;16.63;2.35;;;6.60;91.00;;;;;;5052082;28;20021;-74
2023/05/17 04:45:36;;;;;;;15.40;2.95;;;6.60;90.00;;;;;;5059941;28;20036;-73
2023/05/17 04:48:02;;;;;;;9.50;2.28;;;6.70;90.40;;;;;;5052428;28;20052;-73
2023/05/17 04:50:28;;;;;;;17.20;3.08;;;6.80;89.90;;;;;;5061870;28;20111;-74
2023/05/17 04:52:53;;;;;;;13.55;2.45;;;6.90;89.30;;;;;;5053534;28;20132;-73
2023/05/17 04:55:18;;;;;;;16.23;2.20;;;7.00;89.30;;;;;;5054914;28;20039;-74
2023/05/17 04:57:44;;;;;;;15.43;2.28;;;7.10;88.80;;;;;;5049828;28;20033;-75
2023/05/17 05:00:10;;;;;;;18.00;2.63;;;7.10;88.40;;;;;;5043211;28;20040;-75
2023/05/17 05:02:36;;;;;;;15.85;2.70;;;7.10;88.40;;;;;;5049876;28;20021;-74
2023/05/17 05:05:03;;;;;;;16.80;2.50;;;7.20;88.00;;;;;;5052745;28;20048;-74
2023/05/17 05:07:29;;;;;;;12.85;2.15;;;7.20;86.90;;;;;;5041918;28;20028;-73
2023/05/17 05:09:55;;;;;;;16.38;2.75;;;7.30;87.70;;;;;;5050552;28;20078;-73
2023/05/17 05:12:21;;;;;;;18.75;2.60;;;7.40;87.30;;;;;;5045318;28;20033;-74
2023/05/17 05:14:46;;;;;;;11.15;2.22;;;7.40;87.00;;;;;;5044041;28;20463;-73
2023/05/17 05:17:12;;;;;;;12.40;2.78;;;7.40;86.10;;;;;;5044306;28;20029;-74
2023/05/17 05:19:37;;;;;;;10.85;2.10;;;7.60;86.60;;;;;;5047538;28;20041;-74
2023/05/17 05:22:03;;;;;;;10.52;2.10;;;7.70;85.10;;;;;;5043015;28;20029;-74
2023/05/17 05:24:28;;;;;;;9.80;2.15;;;7.70;84.60;;;;;;5045778;28;20381;-73
2023/05/17 05:26:54;;;;;;;15.40;2.33;;;7.60;85.20;;;;;;5051392;28;20025;-73
2023/05/17 05:29:20;;;;;;;9.27;1.88;;;7.60;85.10;;;;;;5049949;28;20028;-73
2023/05/17 05:31:45;;;;;;;16.27;2.50;;;7.70;85.60;;;;;;5042711;28;20037;-74
2023/05/17 05:34:11;;;;;;;14.95;2.33;;;7.60;84.80;;;;;;5041237;28;20126;-73
2023/05/17 05:36:36;;;;;;;10.93;2.33;;;7.80;85.10;;;;;;5052062;28;20350;-74
2023/05/17 05:39:02;;;;;;;19.77;2.33;;;7.90;84.60;;;;;;5051152;28;20525;-74
2023/05/17 05:41:28;;;;;;;11.68;2.08;;;7.90;83.00;;;;;;5051291;28;20029;-74
2023/05/17 05:43:54;;;;;;;13.57;2.13;;;8.00;83.20;;;;;;5051835;28;20380;-74
2023/05/17 05:46:19;;;;;;;13.55;2.53;;;8.00;82.70;;;;;;5052932;28;20465;-74
2023/05/17 05:48:45;;;;;;;10.10;1.85;;;8.20;83.20;;;;;;5048388;28;20029;-74
2023/05/17 05:51:10;;;;;;;9.38;2.03;;;8.20;80.60;;;;;;5047991;28;20037;-73
2023/05/17 05:53:36;;;;;;;19.35;2.63;;;8.40;81.00;;;;;;5059140;28;20021;-73
2023/05/17 05:56:02;;;;;;;14.77;2.50;;;8.40;79.80;;;;;;5051358;28;20040;-74
2023/05/17 05:58:28;;;;;;;11.57;2.28;;;8.40;78.40;;;;;;5048971;28;20465;-74
2023/05/17 06:00:54;;;;;;;11.85;3.00;;;8.50;78.70;;;;;;5056923;28;20105;-74
2023/05/17 06:03:20;;;;;;;15.98;2.13;;;8.50;76.30;;;;;;5056767;28;20040;-74
2023/05/17 06:05:45;;;;;;;15.70;2.47;;;8.60;77.60;;;;;;5051752;28;20470;-73
2023/05/17 06:08:11;;;;;;;18.27;2.55;;;8.50;76.10;;;;;;5054919;28;20086;-74
2023/05/17 06:10:36;;;;;;;13.27;2.65;;;8.60;78.30;;;;;;5049442;28;20260;-74
2023/05/17 06:13:02;;;;;;;10.98;2.60;;;8.50;77.00;;;;;;5045364;28;20358;-74
2023/05/17 06:15:27;;;;;;;10.73;2.08;;;8.50;78.40;;;;;;5048289;28;20072;-74
2023/05/17 06:17:53;;;;;;;16.85;2.70;;;8.40;77.70;;;;;;5050259;28;20033;-74
2023/05/17 06:20:18;;;;;;;10.75;2.28;;;8.10;78.20;;;;;;5052021;28;20544;-74
2023/05/17 06:22:44;;;;;;;9.98;2.42;;;8.10;79.30;;;;;;5053219;28;20035;-74
2023/05/17 06:25:10;;;;;;;15.10;2.50;;;8.20;80.30;;;;;;5049523;28;20091;-74
2023/05/17 06:27:36;;;;;;;13.75;2.00;;;8.20;80.20;;;;;;5052003;28;20037;-74
2023/05/17 06:30:03;;;;;;;10.93;2.38;;;8.30;78.80;;;;;;5054405;28;20044;-74
2023/05/17 06:32:29;;;;;;;11.20;2.40;;;8.40;79.20;;;;;;5053061;28;20033;-74
2023/05/17 06:34:55;;;;;;;14.77;2.67;;;8.60;78.10;;;;;;5050706;28;20040;-74
2023/05/17 06:37:20;;;;;;;9.75;2.17;;;8.90;78.90;;;;;;5048783;28;20029;-74
2023/05/17 06:39:46;;;;;;;11.77;2.53;;;8.80;75.10;;;;;;5047003;28;20021;-75
2023/05/17 06:42:12;;;;;;;13.98;2.88;;;9.00;76.70;;;;;;5048254;28;20024;-73
2023/05/17 06:44:37;;;;;;;24.38;3.40;;;9.00;76.30;;;;;;5050058;28;20037;-74
2023/05/17 06:47:03;;;;;;;10.63;2.35;;;9.10;74.60;;;;;;5051568;28;20457;-74
2023/05/17 06:49:28;;;;;;;16.05;2.22;;;9.10;72.90;;;;;;5047841;28;20028;-74
2023/05/17 06:51:56;;;;;;;18.70;2.28;;;9.00;73.70;;;;;;5066302;28;20419;-73
2023/05/17 06:54:21;;;;;;;15.32;2.65;;;8.90;73.90;;;;;;5058871;28;20025;-74
2023/05/17 06:56:47;;;;;;;11.95;2.35;;;9.00;72.80;;;;;;5047311;28;20040;-75
2023/05/17 06:59:12;;;;;;;14.30;2.67;;;9.10;73.30;;;;;;5060895;28;20136;-74
2023/05/17 07:01:38;;;;;;;8.55;2.25;;;9.20;73.60;;;;;;5048773;28;20036;-75
2023/05/17 07:04:04;;;;;;;9.68;2.03;;;9.20;71.60;;;;;;5048810;28;20029;-75
2023/05/17 07:06:30;;;;;;;11.57;1.80;;;9.30;71.80;;;;;;5032893;28;20116;-74
2023/05/17 07:08:55;;;;;;;8.07;1.63;;;9.40;72.70;;;;;;5043443;28;20025;-74
2023/05/17 07:11:21;;;;;;;8.00;1.60;;;9.30;68.70;;;;;;5048083;28;20121;-74
2023/05/17 07:13:48;;;;;;;11.48;2.10;;;9.40;70.00;;;;;;5061593;28;20307;-74
2023/05/17 07:16:13;;;;;;;9.90;1.80;;;9.70;69.50;;;;;;5057230;28;20028;-74
2023/05/17 07:18:39;;;;;;;10.00;1.92;;;9.70;67.40;;;;;;5049307;28;20032;-74
2023/05/17 07:21:04;;;;;;;9.95;2.20;;;9.60;66.50;;;;;;5054033;28;20409;-76
2023/05/17 07:23:30;;;;;;;8.88;2.20;;;9.50;67.60;;;;;;5050916;28;20036;-74
2023/05/17 07:25:55;;;;;;;10.90;1.95;;;9.50;67.10;;;;;;5053967;28;20103;-73
2023/05/17 07:28:21;;;;;;;10.82;1.73;;;9.30;68.10;;;;;;5051887;28;20335;-74
2023/05/17 07:30:46;;;;;;;10.52;2.25;;;9.50;68.50;;;;;;5051839;28;20069;-73
2023/05/17 07:33:12;;;;;;;11.00;1.95;;;9.10;68.80;;;;;;5042303;28;20034;-73
2023/05/17 07:35:37;;;;;;;13.23;2.00;;;9.10;69.20;;;;;;5048111;28;20028;-73
2023/05/17 07:38:03;;;;;;;10.98;2.17;;;9.10;68.90;;;;;;5049375;28;20029;-73
2023/05/17 07:40:28;;;;;;;9.43;2.38;;;9.20;69.50;;;;;;5049527;28;20100;-74
2023/05/17 07:42:53;;;;;;;10.45;1.70;;;9.30;69.10;;;;;;5051472;28;20071;-74
2023/05/17 07:45:19;;;;;;;12.13;1.95;;;9.40;68.50;;;;;;5049525;28;20041;-74
2023/05/17 07:47:45;;;;;;;11.70;2.20;;;9.70;68.70;;;;;;5050408;28;20029;-73
2023/05/17 07:50:10;;;;;;;9.50;1.88;;;9.80;69.00;;;;;;5049155;28;20031;-73
2023/05/17 07:52:36;;;;;;;11.48;2.28;;;10.00;67.60;;;;;;5042195;28;20111;-73
2023/05/17 07:55:04;;;;;;;10.32;2.30;;;10.00;67.30;;;;;;5043118;28;20028;-74
2023/05/17 07:57:30;;;;;;;13.63;2.20;;;10.20;66.00;;;;;;5036852;28;20021;-74
2023/05/17 07:59:55;;;;;;;8.95;1.63;;;10.10;65.60;;;;;;5065638;28;20066;-73
2023/05/17 08:02:21;;;;;;;12.20;1.98;;;10.50;64.90;;;;;;5051071;28;20457;-74
2023/05/17 08:04:46;;;;;;;10.25;2.25;;;10.70;64.40;;;;;;5049787;28;20578;-73
2023/05/17 08:07:12;;;;;;;10.57;2.00;;;10.80;64.20;;;;;;5049024;28;20394;-74
2023/05/17 08:09:39;;;;;;;13.45;2.25;;;10.80;64.80;;;;;;5053313;28;20108;-73
2023/05/17 08:12:04;;;;;;;9.13;2.10;;;10.70;63.70;;;;;;5064281;28;20028;-73
2023/05/17 08:14:30;;;;;;;8.90;1.60;;;10.60;64.50;;;;;;5055564;28;20018;-73
2023/05/17 08:16:56;;;;;;;9.55;1.65;;;10.40;62.10;;;;;;5043741;28;20033;-73
2023/05/17 08:19:21;;;;;;;7.60;1.77;;;10.40;61.90;;;;;;5048442;28;20085;-74
2023/05/17 08:21:48;;;;;;;11.07;1.77;;;10.10;62.70;;;;;;5048236;28;20033;-74
2023/05/17 08:24:13;;;;;;;7.28;2.00;;;10.10;63.20;;;;;;5048711;28;20041;-73
2023/05/17 08:26:39;;;;;;;10.15;1.88;;;10.20;63.50;;;;;;5049088;28;20052;-73
2023/05/17 08:29:05;;;;;;;8.18;1.48;;;10.60;64.80;;;;;;5050857;28;20107;-75
2023/05/17 08:31:31;;;;;;;6.72;1.85;;;10.90;62.70;;;;;;5051431;28;20116;-74
2023/05/17 08:33:57;;;;;;;11.73;1.92;;;11.20;63.60;;;;;;5042139;28;20028;-73
2023/05/17 08:36:22;;;;;;;9.13;1.73;;;12.00;61.10;;;;;;5050157;28;20025;-75
2023/05/17 08:38:48;;;;;;;9.38;1.65;;;11.10;59.30;;;;;;5042508;28;20044;-75
2023/05/17 08:41:13;;;;;;;9.13;1.90;;;11.30;61.70;;;;;;5049064;28;20031;-74
2023/05/17 08:43:40;;;;;;;9.20;2.05;;;11.60;61.10;;;;;;5050156;28;20022;-75
2023/05/17 08:46:06;;;;;;;9.85;1.92;;;12.10;60.50;;;;;;5052609;28;20029;-73
2023/05/17 08:48:35;;;;;;;9.68;2.28;;;11.60;59.40;;;;;;5051167;28;20025;-75
2023/05/17 08:51:02;;;;;;;7.88;1.70;;;11.10;60.50;;;;;;5047832;28;20043;-74
2023/05/17 08:53:28;;;;;;;6.28;1.77;;;11.00;62.70;;;;;;5048623;28;20017;-73
2023/05/17 08:55:59;;;;;;;12.05;1.98;;;10.70;61.40;;;;;;5052637;28;20035;-73
2023/05/17 08:58:26;;;;;;;;;;;10.60;62.90;;;;;;5036607;28;20031;-73
2023/05/17 09:00:54;;;;;;;8.27;1.88;;;10.80;63.10;;;;;;5049743;28;19971;-73
2023/05/17 09:03:22;;;;;;;6.47;1.77;;;10.60;63.30;;;;;;5059194;28;20021;-73
2023/05/17 09:05:51;;;;;;;12.80;1.90;;;10.90;64.70;;;;;;5049281;28;20045;-73
2023/05/17 09:08:17;;;;;;;7.43;1.88;;;10.40;62.30;;;;;;5044435;28;20032;-74
2023/05/17 09:10:43;;;;;;;8.15;1.52;;;10.70;63.20;;;;;;5052883;28;20033;-73
2023/05/17 09:13:14;;;;;;;10.15;1.80;;;11.90;60.80;;;;;;5059618;28;20028;-73
2023/05/17 09:15:43;;;;;;;;;;;12.60;61.60;;;;;;5065508;28;20051;-73
2023/05/17 09:18:12;;;;;;;8.23;1.83;;;12.00;57.70;;;;;;5059666;28;20002;-74
2023/05/17 09:20:38;;;;;;;7.25;2.13;;;11.60;58.70;;;;;;5047748;28;20056;-77
2023/05/17 09:23:06;;;;;;;7.38;1.70;;;12.00;58.50;;;;;;5044935;28;20059;-77
2023/05/17 09:25:32;;;;;;;9.18;1.70;;;11.60;57.90;;;;;;5071599;28;20044;-77
2023/05/17 09:28:02;;;;;;;7.82;1.95;;;11.20;59.90;;;;;;5062541;28;20037;-76
2023/05/17 09:30:29;;;;;;;8.70;1.70;;;11.30;61.40;;;;;;5056360;28;20025;-76
2023/05/17 09:32:56;;;;;;;9.57;2.05;;;11.50;62.00;;;;;;5051931;28;20037;-76
2023/05/17 09:35:29;;;;;;;10.85;1.70;;;11.90;61.10;;;;;;5066694;28;20070;-77
2023/05/17 09:38:04;;;;;;;7.53;1.42;;;12.40;60.50;;;;;;5059828;28;20373;-76
2023/05/17 09:40:29;;;;;;;7.75;1.60;;;12.10;59.00;;;;;;5054485;28;20056;-77
2023/05/17 09:42:56;;;;;;;4.82;1.30;;;11.90;59.50;;;;;;5076556;28;20028;-76
2023/05/17 09:45:23;;;;;;;5.97;1.25;;;11.80;61.10;;;;;;5065221;28;20017;-76
2023/05/17 09:47:49;;;;;;;7.38;1.90;;;12.10;59.50;;;;;;5063299;28;20028;-76
2023/05/17 09:50:19;;;;;;;3.20;0.80;;;12.30;59.80;;;;;;5058777;28;20036;-76
2023/05/17 09:52:45;;;;;;;7.20;1.67;;;12.10;58.70;;;;;;5063324;28;20029;-77
2023/05/17 09:55:11;;;;;;;10.32;1.45;;;12.10;60.10;;;;;;5071614;28;20020;-77
2023/05/17 09:57:38;;;;;;;6.28;1.70;;;11.90;64.00;;;;;;5058028;28;20028;-76
2023/05/17 10:00:11;;;;;;;5.03;1.35;;;11.70;63.10;;;;;;5058625;28;20021;-76
2023/05/17 10:02:38;;;;;;;6.75;1.48;;;11.70;61.80;;;;;;5068271;28;20064;-76
2023/05/17 10:05:07;;;;;;;6.63;1.67;;;12.10;63.50;;;;;;5059355;28;20013;-76
2023/05/17 10:07:34;;;;;;;9.30;1.75;;;12.50;63.00;;;;;;5058068;28;20032;-77
2023/05/17 10:10:00;;;;;;;7.63;1.30;;;12.10;62.50;;;;;;5054435;28;20029;-76
2023/05/17 10:12:28;;;;;;;5.70;1.45;;;12.20;64.10;;;;;;5052175;28;20040;-76
2023/05/17 10:14:55;;;;;;;9.07;1.75;;;11.60;62.40;;;;;;5060387;28;20013;-76
2023/05/17 10:17:21;;;;;;;6.43;1.63;;;11.80;62.20;;;;;;5062150;28;20025;-77
2023/05/17 10:19:47;;;;;;;8.65;1.65;;;12.00;61.90;;;;;;5067915;28;20389;-76
2023/05/17 10:22:15;;;;;;;8.23;1.50;;;12.10;59.80;;;;;;5047099;28;20044;-76
2023/05/17 10:24:42;;;;;;;9.27;1.52;;;12.70;60.00;;;;;;5054847;28;20033;-76
2023/05/17 10:27:08;;;;;;;5.53;1.40;;;13.00;57.20;;;;;;5061629;28;20039;-77
2023/05/17 10:29:37;;;;;;;8.40;2.05;;;12.70;59.10;;;;;;5056219;28;20629;-77
2023/05/17 10:32:06;;;;;;;10.88;1.90;;;13.10;59.20;;;;;;5056055;28;20045;-76
2023/05/17 10:34:33;;;;;;;11.80;2.00;;;12.50;60.10;;;;;;5059258;28;20023;-76
2023/05/17 10:37:00;;;;;;;8.93;2.13;;;12.20;62.00;;;;;;5042314;28;20033;-74
2023/05/17 10:39:26;;;;;;;9.20;1.90;;;11.90;62.50;;;;;;5049164;28;20082;-74
2023/05/17 10:41:53;;;;;;;9.32;2.05;;;12.10;62.50;;;;;;5052543;28;20028;-74
2023/05/17 10:44:19;;;;;;;8.25;1.63;;;12.80;58.50;;;;;;5052895;28;20029;-74
2023/05/17 10:46:55;;;;;;;5.20;1.40;;;13.50;58.50;;;;;;5048051;28;20119;-74
2023/05/17 10:49:28;;;;;;;5.05;1.23;;;13.70;54.20;;;;;;5044991;28;20649;-74
2023/05/17 10:51:56;;;;;;;4.85;1.10;;;12.80;54.60;;;;;;5050394;28;20640;-74
2023/05/17 10:54:38;;;;;;;4.47;1.42;;;13.20;56.10;;;;;;5051915;28;20032;-74
2023/05/17 10:57:05;;;;;;;6.75;1.90;;;12.60;54.40;;;;;;5052516;28;20449;-74
2023/05/17 10:59:32;;;;;;;13.27;2.28;;;11.90;59.20;;;;;;5059832;28;20021;-75
2023/05/17 11:02:09;;;;;;;11.05;2.08;;;11.90;59.90;;;;;;5054805;28;20028;-74
2023/05/17 11:04:43;;;;;;;7.85;1.70;;;12.10;60.50;;;;;;5038492;28;20037;-74
2023/05/17 11:07:20;;;;;;;10.90;1.83;;;12.10;60.20;;;;;;5046591;28;20690;-74
2023/05/17 11:09:53;;;;;;;7.50;1.42;;;12.50;57.90;;;;;;5046966;28;20106;-74
2023/05/17 11:12:34;;;;;;;7.00;1.77;;;13.00;54.50;;;;;;5051978;28;20029;-74
2023/05/17 11:15:13;;;;;;;7.43;1.77;;;13.10;56.60;;;;;;5044659;28;20032;-74
2023/05/17 11:17:42;;;;;;;4.68;1.27;;;12.60;59.00;;;;;;5054345;28;20128;-74
2023/05/17 11:20:09;;;;;;;8.95;1.90;;;12.10;56.60;;;;;;5048138;28;20037;-74
2023/05/17 11:23:03;;;;;;;8.82;1.77;;;12.10;57.50;;;;;;5045836;28;20017;-73
2023/05/17 11:25:34;;;;;;;8.63;2.10;;;12.50;57.80;;;;;;5048699;28;20102;-74
2023/05/17 11:28:06;;;;;;;8.80;1.90;;;13.20;56.80;;;;;;5056050;28;20032;-75
2023/05/17 11:30:32;;;;;;;5.55;1.45;;;13.80;53.50;;;;;;5046154;28;20065;-75
2023/05/17 11:33:02;;;;;;;7.50;1.13;;;14.30;49.80;;;;;;5048749;28;20067;-73
2023/05/17 11:35:32;;;;;;;9.95;1.80;;;14.70;47.80;;;;;;5047160;28;20044;-73
2023/05/17 11:38:17;;;;;;;10.18;1.85;;;13.70;51.80;;;;;;5048400;28;20048;-73
2023/05/17 11:40:45;;;;;;;7.15;2.03;;;13.00;54.70;;;;;;5048815;28;20108;-74
2023/05/17 11:43:24;;;;;;;7.20;1.58;;;12.50;56.60;;;;;;5069227;28;20477;-74
2023/05/17 11:46:00;;;;;;;8.88;1.83;;;12.20;58.70;;;;;;5061023;28;20453;-74
2023/05/17 11:48:26;;;;;;;5.55;1.67;;;12.20;59.10;;;;;;5057023;28;20426;-74
2023/05/17 11:50:53;;;;;;;7.57;1.83;;;12.50;59.40;;;;;;5055759;28;20037;-74
2023/05/17 11:53:19;;;;;;;9.68;1.83;;;12.50;59.00;;;;;;5049855;28;20087;-74
2023/05/17 11:55:47;;;;;;;7.05;1.63;;;12.50;60.40;;;;;;5043952;28;20021;-69
2023/05/17 11:58:15;;;;;;;9.18;2.10;;;12.40;60.20;;;;;;5044377;28;20060;-73
2023/05/17 12:00:42;;;;;;;8.05;1.98;;;13.20;59.30;;;;;;5059434;28;20032;-74
2023/05/17 12:03:21;;;;;;;8.18;1.80;;;14.10;56.80;;;;;;5046282;28;20108;-75
2023/05/17 12:05:48;;;;;;;9.20;1.50;;;15.20;55.10;;;;;;5053088;28;20033;-74
2023/05/17 12:08:18;;;;;;;8.95;1.63;;;14.80;52.60;;;;;;5055281;28;20116;-74
2023/05/17 12:10:51;;;;;;;5.70;1.57;;;14.50;51.60;;;;;;5050215;28;20024;-73
2023/05/17 12:13:18;;;;;;;7.53;1.60;;;14.40;53.00;;;;;;5050451;28;20078;-74
2023/05/17 12:15:50;;;;;;;6.85;1.48;;;14.70;50.00;;;;;;5051246;28;20037;-74
2023/05/17 12:18:15;;;;;;;7.90;1.88;;;14.50;49.50;;;;;;5049210;28;20024;-73
2023/05/17 12:21:01;;;;;;;5.28;1.42;;;15.80;50.10;;;;;;5041355;28;20484;-74
2023/05/17 12:23:42;;;;;;;8.55;1.70;;;15.60;46.40;;;;;;5042872;28;20040;-73
2023/05/17 12:26:09;;;;;;;8.55;1.60;;;15.10;48.60;;;;;;5041772;28;20103;-75
2023/05/17 12:28:37;;;;;;;6.78;1.67;;;15.00;48.90;;;;;;5050516;28;20167;-72
2023/05/17 12:31:04;;;;;;;5.68;1.45;;;14.60;49.70;;;;;;5052295;28;20036;-73
2023/05/17 12:33:34;;;;;;;8.20;1.48;;;14.60;50.50;;;;;;5042378;28;20033;-73
2023/05/17 12:36:01;;;;;;;8.25;1.73;;;14.50;50.40;;;;;;5046518;28;20025;-73
2023/05/17 12:38:32;;;;;;;8.25;1.70;;;14.80;49.30;;;;;;5043096;28;20064;-73
2023/05/17 12:41:05;;;;;;;7.05;1.38;;;15.10;47.30;;;;;;5048116;28;20083;-73
2023/05/17 12:43:35;;;;;;;7.70;1.77;;;14.40;48.40;;;;;;5042474;28;20132;-73
2023/05/17 12:46:04;;;;;;;4.97;1.52;;;14.70;47.20;;;;;;5042095;28;20024;-71
2023/05/17 12:48:31;;;;;;;6.60;1.05;;;14.60;46.00;;;;;;5043925;28;20033;-73